logo
Search for airport 
image banner adimage banner adimage banner ad
image banner ad

LSZK - Speck-Fehraltorf

Located in Winterthur, Switzerland

ICAO - LSZK, IATA -

Data provided by Airmate  

General information

Coordinates: N47°22'35" E8°45'27"
Elevation is 1758 feet MSL.
Magnetic variation is 2.908° East
Rated:
View ratings:
[VIEW]
View others Airports in Zurich

Operational data

Special qualification required
Current time UTC:
Current local time:
Weather at : LSMD - Dubendorf ( 9 km )
METAR: LSMD 152050Z AUTO 31015G28KT 9999NDV FEW067 BKN076 13/03 Q1011 RMK
View NOTAMs / SUP AIP / TFR affecting this airport [VIEW]
Communications frequencies: [VIEW]

Runways:

RWY identifierQFULength (ft)Width (ft)SurfaceLDA (ft)
12124°196959GRASS
30304°196959GRASS

Airport contact information

Address: Winterthur Switzerland

Other aviation service providers

Flight schools

Stoffel Aviation Gmbh

Stoffel Aviation Gmbh
info@stoffelaviation.ch+41449500900
+41794384629

Aviation club (not for profit)

Flugsportgruppe Zürcher Oberland

Flugsportgruppe Zürcher Oberland

Segelfluggruppe Zürcher Oberland

Segelfluggruppe Zürcher Oberland
peter.frei.hofmann@gmail.com+41798945637
+41798945637

Satellite view of LSZK